Latest Weather Observations for Parawa West

IDS60901

Issued at 3:15 pm CDT Monday 20 October 2014 (issued every 10 minutes, with the page automatically refreshed every 10 minutes)

About weather observations | Map of Adelaide area stations | Latest observations for Adelaide area | Other Formats
Station Details ID: 023875 Name: SECOND VALLEY FOREST AWS Lat: -35.57 Lon: 138.29 Height: 341.0 m
Data from the previous 72 hours. | See also: Recent months at Parawa West
Date/Time
CDT
Tmp

°C
App
Tmp
°C
Dew
Point
°C
Rel
Hum
%
Delta-T

°C
Wind Press
QNH
hPa
Press
MSL
hPa
Rain
since
9 am
mm
Dir
 
Spd
km/h
Gust
km/h
Spd
kts
Gust
kts
20/03:00pm 20.1 17.1 12.1 60 4.5 ESE 19 24 10 13 1023.1 1023.0 0.0
20/02:30pm 19.7 16.4 11.5 59 4.6 ESE 20 26 11 14 1023.7 1023.5 0.0
20/02:00pm 20.0 17.1 12.3 61 4.4 SE 19 24 10 13 1024.0 1023.8 0.0
20/01:30pm 19.5 16.4 11.5 60 4.5 ESE 19 26 10 14 1024.2 1024.1 0.0
20/01:00pm 17.9 14.6 10.8 63 3.9 ESE 19 26 10 14 1024.4 1024.3 0.0
20/12:30pm 17.9 14.8 12.1 69 3.2 ESE 20 26 11 14 1024.6 1024.5 0.0
20/12:00pm 17.1 13.9 11.2 68 3.2 SE 19 24 10 13 1024.9 1024.8 0.0
20/11:30am 15.9 12.3 10.7 71 2.8 ESE 20 30 11 16 1025.2 1025.1 0.0
20/11:00am 15.4 11.8 10.6 73 2.6 ESE 20 28 11 15 1025.3 1025.2 0.0
20/10:30am 13.9 9.0 9.9 77 2.1 E 26 32 14 17 1025.5 1025.4 0.0
20/10:00am 13.1 7.8 9.9 81 1.7 ESE 28 35 15 19 1025.6 1025.5 0.0
20/09:30am 12.4 7.5 9.8 84 1.3 E 26 41 14 22 1025.7 1025.6 0.0
20/09:00am 11.9 6.1 9.5 85 1.2 E 30 43 16 23 1025.7 1025.6 0.0
20/08:30am 11.0 4.7 9.1 88 1.0 ESE 32 44 17 24 1025.7 1025.6 0.0
20/08:00am 10.4 4.9 9.2 92 0.6 ESE 28 35 15 19 1025.8 1025.7 0.0
20/07:30am 10.0 3.5 8.9 93 0.5 ESE 33 44 18 24 1025.3 1025.2 0.0
20/07:00am 10.1 4.2 9.2 94 0.5 ESE 30 43 16 23 1025.0 1024.9 0.0
20/06:30am 10.2 4.7 9.3 94 0.5 ESE 28 41 15 22 1024.8 1024.7 0.0
20/06:00am 10.4 4.6 9.5 94 0.5 ESE 30 41 16 22 1024.6 1024.5 0.0
20/05:30am 10.5 4.7 9.6 94 0.5 ESE 30 41 16 22 1024.4 1024.3 0.0
20/05:00am 10.6 5.3 9.8 95 0.4 ESE 28 41 15 22 1024.3 1024.2 0.0
20/04:30am 10.7 5.0 9.9 95 0.4 ESE 30 39 16 21 1024.2 1024.1 0.0
20/04:00am 11.0 5.4 10.2 95 0.4 ESE 30 39 16 21 1024.2 1024.1 0.0
20/03:30am 11.0 5.0 10.2 95 0.4 ESE 32 43 17 23 1024.0 1023.8 0.0
20/03:00am 11.1 5.2 10.3 95 0.4 SE 32 43 17 23 1024.3 1024.2 0.0
20/02:30am 11.3 5.4 10.5 95 0.4 SE 32 46 17 25 1024.6 1024.5 0.0
20/02:00am 11.3 5.2 10.5 95 0.4 SE 33 44 18 24 1024.5 1024.4 0.0
20/01:30am 11.4 5.0 10.8 96 0.3 SE 35 50 19 27 1024.6 1024.5 0.0
20/01:00am 11.5 4.7 10.7 95 0.4 SE 37 52 20 28 1024.7 1024.6 0.0
20/12:30am 11.6 4.8 10.8 95 0.4 SE 37 48 20 26 1024.7 1024.6 0.0
20/12:00am 11.7 5.1 11.2 97 0.3 SE 37 46 20 25 1024.9 1024.8 0.0
 
Date/Time
CDT
Tmp

°C
App
Tmp
°C
Dew
Point
°C
Rel
Hum
%
Delta-T

°C
Wind Press
QNH
hPa
Press
MSL
hPa
Rain
since
9 am
mm
Dir
 
Spd
km/h
Gust
km/h
Spd
kts
Gust
kts
19/11:30pm 11.7 5.1 11.2 97 0.3 SE 37 50 20 27 1025.0 1024.9 0.0
19/11:00pm 11.7 4.7 11.2 97 0.3 SE 39 48 21 26 1024.9 1024.8 0.0
19/10:30pm 11.8 5.5 11.0 95 0.4 SE 35 46 19 25 1024.9 1024.8 0.0
19/10:00pm 11.8 5.1 11.0 95 0.4 SE 37 46 20 25 1025.0 1024.9 0.0
19/09:30pm 11.9 5.6 11.1 95 0.4 SE 35 46 19 25 1025.0 1024.9 0.0
19/09:00pm 11.7 5.8 11.1 96 0.3 SE 33 41 18 22 1024.9 1024.8 0.0
19/08:30pm 12.0 5.8 11.4 96 0.3 SE 35 50 19 27 1024.5 1024.4 0.0
19/08:00pm 11.9 6.1 11.4 97 0.3 SE 33 46 18 25 1024.4 1024.3 0.0
19/07:30pm 11.9 6.3 11.6 98 0.2 SE 32 41 17 22 1023.9 1023.7 0.0
19/07:00pm 11.9 6.2 11.0 94 0.5 SE 32 41 17 22 1023.8 1023.6 0.0
19/06:30pm 12.3 6.0 10.9 91 0.7 SE 35 48 19 26 1023.1 1023.0 0.0
19/06:00pm 12.5 6.2 11.2 92 0.7 SSE 35 46 19 25 1023.2 1023.1 0.0
19/05:30pm 12.6 6.5 11.8 95 0.4 SSE 35 48 19 26 1023.1 1023.0 0.0
19/05:00pm 12.7 6.6 11.8 94 0.5 SSE 35 48 19 26 1022.8 1022.7 0.0
19/04:30pm 13.3 7.8 12.4 94 0.5 SSE 33 43 18 23 1022.8 1022.7 0.0
19/04:00pm 13.6 8.5 13.0 96 0.3 SSE 32 41 17 22 1022.7 1022.6 0.0
19/03:30pm 13.6 9.3 13.1 97 0.3 S 28 35 15 19 1022.6 1022.5 0.0
19/03:00pm 14.0 9.8 13.5 97 0.3 S 28 35 15 19 1022.4 1022.3 0.0
19/02:30pm 15.6 12.9 13.4 87 1.2 SSE 20 28 11 15 1022.0 1021.9 0.0
19/02:00pm 15.1 12.9 14.3 95 0.5 SSE 19 24 10 13 1022.1 1022.0 0.0
19/01:30pm 15.6 13.3 14.0 90 0.9 S 19 24 10 13 1022.1 1022.0 0.0
19/01:00pm 16.1 13.3 14.3 89 1.0 S 22 28 12 15 1022.2 1022.1 0.0
19/12:30pm 18.7 16.5 14.8 78 2.3 S 20 26 11 14 1022.0 1021.9 0.0
19/12:26pm 19.0 16.8 14.5 75 2.6 S 19 26 10 14 1022.0 1021.9 0.0
19/12:00pm 24.0 19.0 4.4 28 9.8 W 20 33 11 18 1021.8 1021.7 0.0
19/11:30am 22.7 17.5 3.8 29 9.3 NW 20 30 11 16 1021.7 1021.6 0.0
19/11:00am 22.6 17.5 4.2 30 9.2 NW 20 33 11 18 1021.2 1021.0 0.0
19/10:30am 20.1 14.4 2.9 32 8.2 NW 22 30 12 16 1021.0 1020.8 0.0
19/10:00am 20.3 14.6 2.6 31 8.4 NW 22 33 12 18 1020.8 1020.6 0.0
19/09:30am 20.8 14.7 2.6 30 8.6 NNW 24 39 13 21 1020.6 1020.4 0.0
19/09:00am 20.0 14.3 2.8 32 8.2 NNW 22 30 12 16 1020.4 1020.2 0.0
19/08:30am 19.6 13.7 1.6 30 8.3 NNW 22 30 12 16 1020.1 1020.0 0.0
19/08:00am 18.8 12.9 1.8 32 7.9 NNW 22 32 12 17 1020.0 1019.9 0.0
19/07:30am 18.6 13.1 1.6 32 7.8 NNW 20 30 11 16 1019.5 1019.4 0.0
19/07:00am 18.9 13.0 1.4 31 8.0 NNW 22 32 12 17 1019.2 1019.1 0.0
19/06:30am 19.2 13.5 0.8 29 8.3 NW 20 32 11 17 1018.5 1018.3 0.0
19/06:00am 19.3 14.1 -0.1 27 8.6 NW 17 28 9 15 1018.1 1017.9 0.0
19/05:30am 19.4 14.6 -0.1 27 8.7 NW 15 26 8 14 1017.9 1017.7 0.0
19/05:00am 19.3 15.2 -0.1 27 8.7 NW 11 20 6 11 1018.0 1017.8 0.0
19/04:30am 19.2 15.9 -0.2 27 8.6 NW 7 17 4 9 1018.0 1017.8 0.0
19/04:00am 19.3 16.1 -0.7 26 8.8 NNW 6 13 3 7 1018.1 1017.9 0.0
19/03:30am 18.2 15.8 -0.6 28 8.2 N 2 6 1 3 1018.4 1018.2 0.0
19/03:00am 18.3 15.4 -1.0 27 8.4 N 4 6 2 3 1018.5 1018.3 0.0
19/02:30am 19.0 16.6 -0.4 27 8.6 NE 2 6 1 3 1018.8 1018.6 0.0
19/02:00am 19.6 16.6 -1.5 24 9.2 NE 4 6 2 3 1019.2 1019.1 0.0
19/01:30am 21.0 17.6 -2.1 21 10.0 NE 6 9 3 5 1019.4 1019.3 0.0
19/01:00am 21.9 18.9 -2.0 20 10.5 NE 4 7 2 4 1019.8 1019.7 0.0
19/12:30am 22.0 18.5 -2.7 19 10.7 W 6 7 3 4 1019.8 1019.7 0.0
19/12:00am 22.3 19.1 -3.1 18 10.9 W 4 6 2 3 1020.1 1020.0 0.0
 
Date/Time
CDT
Tmp

°C
App
Tmp
°C
Dew
Point
°C
Rel
Hum
%
Delta-T

°C
Wind Press
QNH
hPa
Press
MSL
hPa
Rain
since
9 am
mm
Dir
 
Spd
km/h
Gust
km/h
Spd
kts
Gust
kts
18/11:30pm 22.4 19.5 -3.8 17 11.1 W 2 4 1 2 1020.2 1020.1 0.0
18/11:00pm 21.8 19.4 -2.8 19 10.6 CALM 0 0 0 0 1020.5 1020.3 0.0
18/10:30pm 20.9 18.1 -2.9 20 10.2 W 2 2 1 1 1020.7 1020.5 0.0
18/10:00pm 20.7 18.0 -2.4 21 10.0 W 2 4 1 2 1020.9 1020.7 0.0
18/09:30pm 22.5 19.5 -2.2 19 10.8 W 4 6 2 3 1020.8 1020.6 0.0
18/09:00pm 22.7 19.3 -2.1 19 10.9 W 6 7 3 4 1020.6 1020.4 0.0
18/08:30pm 21.2 18.8 -0.1 24 9.6 WSW 2 4 1 2 1020.5 1020.3 0.0
18/08:00pm 22.3 19.2 0.2 23 10.2 SW 6 7 3 4 1020.5 1020.3 0.0
18/07:30pm 22.1 19.2 1.2 25 9.8 SW 6 9 3 5 1020.2 1020.1 0.0
18/07:00pm 22.7 20.3 4.2 30 9.2 SW 6 9 3 5 1019.9 1019.8 0.0
18/06:30pm 23.1 20.5 3.1 27 9.8 SW 6 11 3 6 1019.8 1019.7 0.0
18/06:00pm 23.6 21.2 4.5 29 9.6 NW 6 9 3 5 1019.7 1019.6 0.0
18/05:30pm 25.0 21.7 2.4 23 11.0 NNW 9 15 5 8 1019.5 1019.4 0.0
18/05:00pm 25.9 21.5 2.6 22 11.5 NW 15 24 8 13 1019.4 1019.3 0.0
18/04:30pm 25.4 21.0 2.8 23 11.1 NW 15 24 8 13 1019.3 1019.2 0.0
18/04:00pm 24.8 20.6 4.0 26 10.5 NW 15 26 8 14 1019.4 1019.3 0.0
18/03:30pm 26.0 22.6 3.9 24 11.2 NW 11 20 6 11 1019.6 1019.5 0.0
18/03:00pm 25.1 21.4 4.3 26 10.5 NNW 13 24 7 13 1020.0 1019.9 0.0
18/02:30pm 26.0 21.6 2.7 22 11.5 NNW 15 26 8 14 1020.1 1020.0 0.0
18/02:00pm 26.3 22.0 3.5 23 11.5 NNW 15 32 8 17 1020.4 1020.2 0.0
18/01:30pm 26.2 22.2 2.8 22 11.6 NNW 13 30 7 16 1020.5 1020.3 0.0
18/01:00pm 25.1 21.1 3.1 24 10.9 NNW 13 32 7 17 1020.4 1020.2 0.0
18/12:30pm 25.4 22.1 4.5 26 10.6 NW 11 26 6 14 1020.5 1020.3 0.0
18/12:00pm 23.5 21.0 4.5 29 9.5 NW 7 19 4 10 1020.7 1020.5 0.0
18/11:30am 22.7 20.3 4.2 30 9.2 N 6 20 3 11 1021.3 1021.1 0.0
18/11:00am 20.8 18.2 4.0 33 8.2 NW 7 13 4 7 1021.7 1021.6 0.0
18/10:30am 22.0 18.8 3.2 29 9.1 NW 9 19 5 10 1021.7 1021.6 0.0
18/10:00am 21.6 18.2 3.8 31 8.7 NW 11 20 6 11 1021.7 1021.6 0.0
18/09:30am 20.6 17.5 3.8 33 8.2 NNW 9 19 5 10 1021.5 1021.3 0.0
18/09:00am 20.0 17.2 3.3 33 8.0 NW 7 15 4 8 1021.3 1021.1 0.0
18/08:30am 19.3 16.9 4.3 37 7.3 ENE 6 11 3 6 1021.2 1021.0 0.0
18/08:00am 18.2 16.1 3.7 38 6.9 W 4 9 2 5 1021.4 1021.2 0.0
18/07:30am 18.6 16.3 2.9 35 7.4 E 4 9 2 5 1021.4 1021.2 0.0
18/07:00am 18.3 15.3 1.8 33 7.6 NW 7 17 4 9 1021.3 1021.1 0.0
18/06:30am 18.4 15.2 0.5 30 8.0 NW 7 22 4 12 1020.6 1020.4 0.0
18/06:00am 18.1 14.9 0.7 31 7.8 W 7 15 4 8 1019.8 1019.7 0.0
18/05:30am 17.9 15.0 1.4 33 7.5 S 6 11 3 6 1019.3 1019.2 0.0
18/05:00am 17.8 14.9 1.3 33 7.5 S 6 17 3 9 1019.6 1019.5 0.0
18/04:30am 17.6 14.7 1.6 34 7.3 N 6 11 3 6 1020.0 1019.9 0.0
18/04:00am 17.5 15.0 1.5 34 7.3 NW 4 6 2 3 1020.2 1020.1 0.0
18/03:30am 17.2 15.1 2.0 36 6.9 S 2 7 1 4 1020.2 1020.1 0.0
18/03:00am 16.4 14.5 2.8 40 6.3 NNE 2 7 1 4 1020.2 1020.1 0.0
18/02:30am 15.9 14.0 3.0 42 5.9 NNE 2 6 1 3 1020.6 1020.4 0.0
18/02:00am 16.3 14.4 3.0 41 6.2 NNE 2 6 1 3 1021.0 1020.8 0.0
18/01:30am 15.4 13.5 2.9 43 5.7 N 2 4 1 2 1021.2 1021.0 0.0
18/01:00am 15.5 13.6 3.0 43 5.8 N 2 9 1 5 1021.3 1021.1 0.0
18/12:30am 15.9 13.3 3.4 43 5.8 NNE 6 7 3 4 1021.3 1021.1 0.0
18/12:00am 15.9 13.1 3.4 43 5.8 NE 7 11 4 6 1021.5 1021.3 0.0
 
Date/Time
CDT
Tmp

°C
App
Tmp
°C
Dew
Point
°C
Rel
Hum
%
Delta-T

°C
Wind Press
QNH
hPa
Press
MSL
hPa
Rain
since
9 am
mm
Dir
 
Spd
km/h
Gust
km/h
Spd
kts
Gust
kts
17/11:30pm 16.6 13.4 3.3 41 6.2 NE 9 13 5 7 1021.7 1021.6 0.0
17/11:00pm 16.9 13.1 3.9 42 6.2 NE 13 19 7 10 1021.9 1021.8 0.0
17/10:30pm 17.8 13.3 4.0 40 6.6 NE 17 22 9 12 1022.1 1022.0 0.0
17/10:00pm 17.5 12.7 4.5 42 6.3 NE 19 24 10 13 1022.4 1022.3 0.0
17/09:30pm 17.4 12.7 5.0 44 6.0 NE 19 26 10 14 1022.3 1022.2 0.0
17/09:00pm 17.2 12.8 4.9 44 6.0 NE 17 22 9 12 1022.2 1022.1 0.0
17/08:30pm 16.9 13.3 4.9 45 5.8 NE 13 19 7 10 1022.2 1022.1 0.0
17/08:00pm 17.8 14.5 4.4 41 6.5 NE 11 15 6 8 1022.0 1021.9 0.0
17/07:30pm 18.5 15.4 3.6 37 7.1 ENE 9 11 5 6 1021.8 1021.7 0.0
17/07:00pm 19.6 17.6 4.5 37 7.4 NE 4 7 2 4 1021.8 1021.7 0.0
17/06:30pm 21.0 19.8 6.5 39 7.4 NNE 2 4 1 2 1022.1 1022.0 0.0
17/06:00pm 21.1 19.4 4.2 33 8.3 NNE 2 9 1 5 1021.9 1021.8 0.0
17/05:30pm 21.5 19.4 3.7 31 8.7 NE 4 9 2 5 1021.8 1021.7 0.0
17/05:00pm 21.3 18.3 2.1 28 9.1 NNW 7 13 4 7 1021.8 1021.7 0.0
17/04:30pm 21.4 18.6 2.2 28 9.1 N 6 11 3 6 1022.0 1021.9 0.0
17/04:00pm 21.9 19.1 2.1 27 9.4 N 6 9 3 5 1022.2 1022.1 0.0
17/03:30pm 21.4 18.2 3.1 30 8.8 NNW 9 20 5 11 1022.4 1022.3 0.0

Latest Capital City Observations: Canberra | Sydney | Melbourne | Brisbane | Adelaide | Perth | Hobart | Darwin

Other Formats:

Comma delimited format used in spreadsheet applications
http://www.bom.gov.au/fwo/IDS60901/IDS60901.94811.axf

JavaScript Object Notation format (JSON) in row-major order
http://www.bom.gov.au/fwo/IDS60901/IDS60901.94811.json